createdAt,value
2023-04-23T00:00:30.000Z,14.7
2023-04-23T00:01:34.000Z,14.71
2023-04-23T00:02:38.000Z,14.71
2023-04-23T00:03:41.000Z,14.71
2023-04-23T00:04:45.000Z,14.77
2023-04-23T00:05:49.000Z,14.77
2023-04-23T00:06:53.000Z,14.78
2023-04-23T00:07:57.000Z,14.78
2023-04-23T00:09:00.000Z,14.77
2023-04-23T00:10:04.000Z,14.78
2023-04-23T00:11:08.000Z,14.78
2023-04-23T00:12:12.000Z,14.82
2023-04-23T00:13:15.000Z,14.82
2023-04-23T00:14:19.000Z,14.78
2023-04-23T00:15:23.000Z,14.79
2023-04-23T00:16:27.000Z,14.79
2023-04-23T00:17:30.000Z,14.79
2023-04-23T00:18:34.000Z,14.78
2023-04-23T00:19:38.000Z,14.77
2023-04-23T00:20:42.000Z,14.73
2023-04-23T00:21:45.000Z,14.71
2023-04-23T00:22:49.000Z,14.67
2023-04-23T00:23:53.000Z,14.64
2023-04-23T00:24:57.000Z,14.63
2023-04-23T00:26:01.000Z,14.61
2023-04-23T00:27:04.000Z,14.59
2023-04-23T00:28:08.000Z,14.55
2023-04-23T00:29:12.000Z,14.53
2023-04-23T00:30:16.000Z,14.51
2023-04-23T00:31:19.000Z,14.52
2023-04-23T00:32:23.000Z,14.52
2023-04-23T00:33:27.000Z,14.52
2023-04-23T00:34:31.000Z,14.51
2023-04-23T00:35:35.000Z,14.49
2023-04-23T00:36:38.000Z,14.49
2023-04-23T00:37:42.000Z,14.53
2023-04-23T00:38:46.000Z,14.51
2023-04-23T00:39:50.000Z,14.51
2023-04-23T00:40:54.000Z,14.51
2023-04-23T00:41:58.000Z,14.51
2023-04-23T00:43:01.000Z,14.51
2023-04-23T00:44:05.000Z,14.51
2023-04-23T00:45:09.000Z,14.51
2023-04-23T00:46:13.000Z,14.49
2023-04-23T00:47:16.000Z,14.49
2023-04-23T00:48:20.000Z,14.49
2023-04-23T00:49:24.000Z,14.49
2023-04-23T00:50:28.000Z,14.48
2023-04-23T00:51:31.000Z,14.45
2023-04-23T00:52:35.000Z,14.45
2023-04-23T00:53:39.000Z,14.44
2023-04-23T00:54:43.000Z,14.41
2023-04-23T00:55:47.000Z,14.41
2023-04-23T00:56:50.000Z,14.4
2023-04-23T00:57:54.000Z,14.34
2023-04-23T00:58:58.000Z,14.31
2023-04-23T01:00:02.000Z,14.28
2023-04-23T01:01:06.000Z,14.26
2023-04-23T01:02:09.000Z,14.26
2023-04-23T01:03:13.000Z,14.19
2023-04-23T01:04:17.000Z,14.16
2023-04-23T01:05:21.000Z,14.11
2023-04-23T01:06:25.000Z,14.08
2023-04-23T01:07:28.000Z,14.08
2023-04-23T01:08:32.000Z,14.05
2023-04-23T01:09:36.000Z,14.03
2023-04-23T01:10:40.000Z,14.03
2023-04-23T01:11:43.000Z,14.0
2023-04-23T01:12:47.000Z,13.97
2023-04-23T01:13:51.000Z,13.96
2023-04-23T01:14:55.000Z,13.96
2023-04-23T01:15:58.000Z,13.94
2023-04-23T01:17:02.000Z,13.94
2023-04-23T01:18:06.000Z,13.93
2023-04-23T01:19:10.000Z,13.91
2023-04-23T01:20:14.000Z,13.93
2023-04-23T01:21:17.000Z,13.93
2023-04-23T01:22:21.000Z,13.91
2023-04-23T01:23:25.000Z,13.91
2023-04-23T01:24:29.000Z,13.91
2023-04-23T01:25:32.000Z,13.91
2023-04-23T01:26:36.000Z,13.91
2023-04-23T01:27:40.000Z,13.91
2023-04-23T01:28:44.000Z,13.9
2023-04-23T01:29:48.000Z,13.88
2023-04-23T01:30:51.000Z,13.86
2023-04-23T01:31:55.000Z,13.85
2023-04-23T01:32:59.000Z,13.79
2023-04-23T01:34:03.000Z,13.76
2023-04-23T01:35:06.000Z,13.75
2023-04-23T01:36:10.000Z,13.75
2023-04-23T01:37:14.000Z,13.73
2023-04-23T01:38:18.000Z,13.72
2023-04-23T01:39:22.000Z,13.75
2023-04-23T01:40:25.000Z,13.76
2023-04-23T01:41:29.000Z,13.76
2023-04-23T01:42:33.000Z,13.78
2023-04-23T01:43:37.000Z,13.76
2023-04-23T01:44:40.000Z,13.75
2023-04-23T01:45:44.000Z,13.76
2023-04-23T01:46:48.000Z,13.76
2023-04-23T01:47:52.000Z,13.75
2023-04-23T01:48:55.000Z,13.76
2023-04-23T01:49:59.000Z,13.76
2023-04-23T01:51:03.000Z,13.75
2023-04-23T01:52:07.000Z,13.76
2023-04-23T01:53:11.000Z,13.78
2023-04-23T01:54:14.000Z,13.79
2023-04-23T01:55:18.000Z,13.79
2023-04-23T01:56:22.000Z,13.8
2023-04-23T01:57:26.000Z,13.82
2023-04-23T01:58:29.000Z,13.83
2023-04-23T01:59:33.000Z,13.83
2023-04-23T02:00:37.000Z,13.85
2023-04-23T02:01:41.000Z,13.85
2023-04-23T02:02:45.000Z,13.88
2023-04-23T02:03:48.000Z,13.88
2023-04-23T02:04:52.000Z,13.88
2023-04-23T02:05:56.000Z,13.91
2023-04-23T02:07:00.000Z,13.93
2023-04-23T02:08:04.000Z,13.94
2023-04-23T02:09:07.000Z,13.94
2023-04-23T02:10:11.000Z,13.94
2023-04-23T02:11:15.000Z,13.93
2023-04-23T02:12:19.000Z,13.9
2023-04-23T02:13:23.000Z,13.88
2023-04-23T02:14:26.000Z,13.86
2023-04-23T02:15:30.000Z,13.86
2023-04-23T02:16:34.000Z,13.83
2023-04-23T02:17:38.000Z,13.79
2023-04-23T02:18:41.000Z,13.76
2023-04-23T02:19:45.000Z,13.75
2023-04-23T02:20:49.000Z,13.71
2023-04-23T02:21:53.000Z,13.71
2023-04-23T02:22:57.000Z,13.67
2023-04-23T02:24:00.000Z,13.64
2023-04-23T02:25:04.000Z,13.64
2023-04-23T02:26:08.000Z,13.63
2023-04-23T02:27:12.000Z,13.61
2023-04-23T02:28:16.000Z,13.6
2023-04-23T02:29:20.000Z,13.6
2023-04-23T02:30:23.000Z,13.6
2023-04-23T02:31:27.000Z,13.58
2023-04-23T02:32:31.000Z,13.6
2023-04-23T02:33:35.000Z,13.6
2023-04-23T02:34:38.000Z,13.6
2023-04-23T02:35:42.000Z,13.58
2023-04-23T02:36:46.000Z,13.6
2023-04-23T02:37:49.000Z,13.58
2023-04-23T02:38:53.000Z,13.58
2023-04-23T02:39:57.000Z,13.58
2023-04-23T02:41:01.000Z,13.6
2023-04-23T02:42:05.000Z,13.6
2023-04-23T02:43:09.000Z,13.61
2023-04-23T02:44:12.000Z,13.61
2023-04-23T02:45:16.000Z,13.61
2023-04-23T02:46:20.000Z,13.61
2023-04-23T02:47:24.000Z,13.61
2023-04-23T02:48:27.000Z,13.6
2023-04-23T02:49:31.000Z,13.6
2023-04-23T02:50:35.000Z,13.6
2023-04-23T02:51:39.000Z,13.61
2023-04-23T02:52:42.000Z,13.63
2023-04-23T02:53:46.000Z,13.61
2023-04-23T02:54:50.000Z,13.61
2023-04-23T02:55:53.000Z,13.61
2023-04-23T02:56:57.000Z,13.61
2023-04-23T02:58:01.000Z,13.61
2023-04-23T02:59:05.000Z,13.61
2023-04-23T03:00:09.000Z,13.6
2023-04-23T03:01:13.000Z,13.61
2023-04-23T03:02:16.000Z,13.61
2023-04-23T03:03:20.000Z,13.63
2023-04-23T03:04:24.000Z,13.63
2023-04-23T03:05:28.000Z,13.61
2023-04-23T03:06:31.000Z,13.61
2023-04-23T03:07:35.000Z,13.6
2023-04-23T03:08:39.000Z,13.61
2023-04-23T03:09:43.000Z,13.63
2023-04-23T03:10:46.000Z,13.64
2023-04-23T03:11:50.000Z,13.64
2023-04-23T03:12:54.000Z,13.6
2023-04-23T03:13:58.000Z,13.65
2023-04-23T03:15:01.000Z,13.67
2023-04-23T03:16:05.000Z,13.67
2023-04-23T03:17:09.000Z,13.68
2023-04-23T03:18:13.000Z,13.68
2023-04-23T03:19:16.000Z,13.68
2023-04-23T03:20:20.000Z,13.71
2023-04-23T03:21:24.000Z,13.72
2023-04-23T03:22:28.000Z,13.67
2023-04-23T03:23:32.000Z,13.58
2023-04-23T03:24:35.000Z,13.47
2023-04-23T03:25:39.000Z,13.32
2023-04-23T03:26:43.000Z,13.14
2023-04-23T03:27:47.000Z,13.04
2023-04-23T03:28:50.000Z,12.98
2023-04-23T03:29:54.000Z,12.99
2023-04-23T03:30:58.000Z,12.98
2023-04-23T03:32:02.000Z,12.93
2023-04-23T03:33:05.000Z,12.88
2023-04-23T03:34:09.000Z,12.87
2023-04-23T03:35:13.000Z,12.88
2023-04-23T03:36:17.000Z,12.9
2023-04-23T03:37:21.000Z,12.87
2023-04-23T03:38:24.000Z,12.88
2023-04-23T03:39:28.000Z,12.9
2023-04-23T03:40:32.000Z,12.95
2023-04-23T03:41:36.000Z,12.99
2023-04-23T03:42:39.000Z,13.01
2023-04-23T03:43:43.000Z,12.99
2023-04-23T03:44:47.000Z,13.01
2023-04-23T03:45:51.000Z,13.02
2023-04-23T03:46:54.000Z,13.05
2023-04-23T03:47:58.000Z,13.05
2023-04-23T03:49:02.000Z,13.06
2023-04-23T03:50:06.000Z,13.09
2023-04-23T03:51:09.000Z,13.11
2023-04-23T03:52:13.000Z,13.13
2023-04-23T03:53:17.000Z,13.14
2023-04-23T03:54:21.000Z,13.17
2023-04-23T03:55:25.000Z,13.19
2023-04-23T03:56:28.000Z,13.2
2023-04-23T03:57:32.000Z,13.2
2023-04-23T03:58:36.000Z,13.17
2023-04-23T03:59:40.000Z,13.19
2023-04-23T04:00:43.000Z,13.19
2023-04-23T04:01:47.000Z,13.19
2023-04-23T04:02:51.000Z,13.17
2023-04-23T04:03:55.000Z,13.17
2023-04-23T04:04:58.000Z,13.17
2023-04-23T04:06:02.000Z,13.17
2023-04-23T04:07:06.000Z,13.14
2023-04-23T04:08:10.000Z,13.16
2023-04-23T04:09:14.000Z,13.14
2023-04-23T04:10:17.000Z,13.13
2023-04-23T04:11:21.000Z,13.16
2023-04-23T04:12:25.000Z,13.17
2023-04-23T04:13:29.000Z,13.2
2023-04-23T04:14:32.000Z,13.2
2023-04-23T04:15:36.000Z,13.2
2023-04-23T04:16:40.000Z,13.21
2023-04-23T04:17:44.000Z,13.2
2023-04-23T04:18:48.000Z,13.2
2023-04-23T04:19:51.000Z,13.19
2023-04-23T04:20:55.000Z,13.19
2023-04-23T04:21:59.000Z,13.19
2023-04-23T04:23:03.000Z,13.2
2023-04-23T04:24:06.000Z,13.2
2023-04-23T04:25:10.000Z,13.21
2023-04-23T04:26:14.000Z,13.23
2023-04-23T04:27:18.000Z,13.23
2023-04-23T04:28:21.000Z,13.24
2023-04-23T04:29:25.000Z,13.24
2023-04-23T04:30:29.000Z,13.21
2023-04-23T04:31:33.000Z,13.21
2023-04-23T04:32:36.000Z,13.21
2023-04-23T04:33:40.000Z,13.2
2023-04-23T04:34:44.000Z,13.24
2023-04-23T04:35:48.000Z,13.23
2023-04-23T04:36:51.000Z,13.24
2023-04-23T04:37:55.000Z,13.26
2023-04-23T04:38:59.000Z,13.26
2023-04-23T04:40:03.000Z,13.29
2023-04-23T04:41:06.000Z,13.29
2023-04-23T04:42:10.000Z,13.32
2023-04-23T04:43:14.000Z,13.3
2023-04-23T04:44:18.000Z,13.3
2023-04-23T04:45:22.000Z,13.35
2023-04-23T04:46:25.000Z,13.36
2023-04-23T04:47:29.000Z,13.39
2023-04-23T04:48:33.000Z,13.36
2023-04-23T04:49:37.000Z,13.35
2023-04-23T04:50:40.000Z,13.35
2023-04-23T04:51:44.000Z,13.35
2023-04-23T04:52:48.000Z,13.35
2023-04-23T04:53:52.000Z,13.39
2023-04-23T04:54:55.000Z,13.35
2023-04-23T04:55:59.000Z,13.35
2023-04-23T04:57:03.000Z,13.35
2023-04-23T04:58:07.000Z,13.35
2023-04-23T04:59:10.000Z,13.36
2023-04-23T05:00:14.000Z,13.36
2023-04-23T05:01:18.000Z,13.39
2023-04-23T05:02:22.000Z,13.42
2023-04-23T05:03:26.000Z,13.42
2023-04-23T05:04:29.000Z,13.42
2023-04-23T05:05:33.000Z,13.42
2023-04-23T05:06:37.000Z,13.45
2023-04-23T05:07:41.000Z,13.46
2023-04-23T05:08:44.000Z,13.46
2023-04-23T05:09:48.000Z,13.45
2023-04-23T05:10:52.000Z,13.45
2023-04-23T05:11:56.000Z,13.45
2023-04-23T05:12:59.000Z,13.43
2023-04-23T05:14:03.000Z,13.45
2023-04-23T05:15:07.000Z,13.47
2023-04-23T05:16:11.000Z,13.47
2023-04-23T05:17:15.000Z,13.47
2023-04-23T05:18:19.000Z,13.49
2023-04-23T05:19:22.000Z,13.54
2023-04-23T05:20:26.000Z,13.54
2023-04-23T05:21:30.000Z,13.58
2023-04-23T05:22:34.000Z,13.58
2023-04-23T05:23:38.000Z,13.58
2023-04-23T05:24:41.000Z,13.57
2023-04-23T05:25:45.000Z,13.54
2023-04-23T05:26:49.000Z,13.54
2023-04-23T05:27:53.000Z,13.53
2023-04-23T05:28:56.000Z,13.51
2023-04-23T05:30:00.000Z,13.55
2023-04-23T05:31:04.000Z,13.54
2023-04-23T05:32:08.000Z,13.57
2023-04-23T05:33:11.000Z,13.61
2023-04-23T05:34:15.000Z,13.61
2023-04-23T05:35:19.000Z,13.65
2023-04-23T05:36:23.000Z,13.67
2023-04-23T05:37:27.000Z,13.67
2023-04-23T05:38:30.000Z,13.64
2023-04-23T05:39:34.000Z,13.65
2023-04-23T05:40:38.000Z,13.68
2023-04-23T05:41:42.000Z,13.68
2023-04-23T05:42:46.000Z,13.73
2023-04-23T05:43:49.000Z,13.73
2023-04-23T05:44:53.000Z,13.79
2023-04-23T05:45:57.000Z,13.83
2023-04-23T05:47:01.000Z,13.88
2023-04-23T05:48:04.000Z,13.93
2023-04-23T05:49:08.000Z,13.96
2023-04-23T05:50:12.000Z,14.0
2023-04-23T05:51:16.000Z,14.05
2023-04-23T05:52:19.000Z,14.08
2023-04-23T05:53:23.000Z,14.08
2023-04-23T05:54:27.000Z,14.08
2023-04-23T05:55:31.000Z,14.09
2023-04-23T05:56:35.000Z,14.09
2023-04-23T05:57:39.000Z,14.11
2023-04-23T05:58:42.000Z,14.11
2023-04-23T05:59:46.000Z,14.15
2023-04-23T06:00:50.000Z,14.16
2023-04-23T06:01:54.000Z,14.21
2023-04-23T06:02:57.000Z,14.23
2023-04-23T06:04:01.000Z,14.3
2023-04-23T06:05:05.000Z,14.31
2023-04-23T06:06:09.000Z,14.36
2023-04-23T06:07:13.000Z,14.37
2023-04-23T06:08:17.000Z,14.45
2023-04-23T06:09:21.000Z,14.51
2023-04-23T06:10:24.000Z,14.56
2023-04-23T06:11:28.000Z,14.58
2023-04-23T06:12:32.000Z,14.67
2023-04-23T06:13:36.000Z,14.78
2023-04-23T06:14:39.000Z,14.82
2023-04-23T06:15:43.000Z,14.89
2023-04-23T06:16:47.000Z,14.96
2023-04-23T06:17:51.000Z,15.01
2023-04-23T06:18:55.000Z,15.07
2023-04-23T06:19:58.000Z,15.15
2023-04-23T06:21:02.000Z,15.22
2023-04-23T06:22:06.000Z,15.29
2023-04-23T06:23:10.000Z,15.36
2023-04-23T06:24:13.000Z,15.44
2023-04-23T06:25:17.000Z,15.5
2023-04-23T06:26:21.000Z,15.52
2023-04-23T06:27:25.000Z,15.58
2023-04-23T06:28:28.000Z,15.6
2023-04-23T06:29:32.000Z,15.6
2023-04-23T06:30:36.000Z,15.52
2023-04-23T06:31:40.000Z,15.48
2023-04-23T06:32:44.000Z,15.52
2023-04-23T06:33:47.000Z,15.59
2023-04-23T06:34:51.000Z,15.66
2023-04-23T06:35:55.000Z,15.68
2023-04-23T06:36:59.000Z,15.73
2023-04-23T06:38:02.000Z,15.76
2023-04-23T06:39:06.000Z,15.78
2023-04-23T06:40:10.000Z,15.72
2023-04-23T06:41:14.000Z,15.7
2023-04-23T06:42:18.000Z,15.7
2023-04-23T06:43:21.000Z,15.73
2023-04-23T06:44:25.000Z,15.8
2023-04-23T06:45:29.000Z,15.87
2023-04-23T06:46:33.000Z,15.95
2023-04-23T06:47:36.000Z,15.83
2023-04-23T06:48:40.000Z,15.66
2023-04-23T06:49:44.000Z,15.69
2023-04-23T06:50:48.000Z,15.68
2023-04-23T06:51:52.000Z,15.63
2023-04-23T06:52:55.000Z,15.65
2023-04-23T06:53:59.000Z,15.73
2023-04-23T06:55:03.000Z,15.83
2023-04-23T06:56:07.000Z,15.84
2023-04-23T06:57:11.000Z,15.88
2023-04-23T06:58:14.000Z,15.9
2023-04-23T06:59:18.000Z,15.93
2023-04-23T07:00:22.000Z,16.05
2023-04-23T07:01:26.000Z,16.16
2023-04-23T07:02:29.000Z,16.34
2023-04-23T07:03:33.000Z,16.47
2023-04-23T07:04:37.000Z,16.69
2023-04-23T07:05:41.000Z,16.87
2023-04-23T07:06:45.000Z,16.98
2023-04-23T07:07:48.000Z,16.99
2023-04-23T07:08:52.000Z,16.98
2023-04-23T07:09:56.000Z,17.1
2023-04-23T07:11:00.000Z,17.04
2023-04-23T07:12:04.000Z,17.01
2023-04-23T07:13:07.000Z,17.07
2023-04-23T07:14:11.000Z,16.99
2023-04-23T07:15:15.000Z,16.84
2023-04-23T07:16:19.000Z,16.79
2023-04-23T07:17:22.000Z,16.82
2023-04-23T07:18:26.000Z,16.84
2023-04-23T07:19:30.000Z,16.83
2023-04-23T07:20:34.000Z,16.87
2023-04-23T07:21:38.000Z,16.94
2023-04-23T07:22:41.000Z,17.09
2023-04-23T07:23:45.000Z,17.02
2023-04-23T07:24:49.000Z,17.02
2023-04-23T07:25:53.000Z,17.27
2023-04-23T07:26:57.000Z,17.31
2023-04-23T07:28:00.000Z,17.38
2023-04-23T07:29:04.000Z,17.46
2023-04-23T07:30:08.000Z,17.63
2023-04-23T07:31:12.000Z,17.69
2023-04-23T07:32:15.000Z,17.62
2023-04-23T07:33:19.000Z,17.73
2023-04-23T07:34:23.000Z,17.87
2023-04-23T07:35:27.000Z,17.81
2023-04-23T07:36:30.000Z,17.91
2023-04-23T07:37:34.000Z,18.06
2023-04-23T07:38:38.000Z,18.05
2023-04-23T07:39:42.000Z,17.88
2023-04-23T07:40:45.000Z,17.81
2023-04-23T07:41:49.000Z,17.88
2023-04-23T07:42:53.000Z,17.96
2023-04-23T07:43:57.000Z,17.97
2023-04-23T07:45:01.000Z,17.94
2023-04-23T07:46:04.000Z,17.81
2023-04-23T07:47:08.000Z,17.78
2023-04-23T07:48:12.000Z,17.57
2023-04-23T07:49:16.000Z,17.54
2023-04-23T07:50:19.000Z,17.54
2023-04-23T07:51:23.000Z,17.47
2023-04-23T07:52:27.000Z,17.53
2023-04-23T07:53:31.000Z,17.59
2023-04-23T07:54:34.000Z,17.57
2023-04-23T07:55:38.000Z,17.62
2023-04-23T07:56:42.000Z,17.79
2023-04-23T07:57:46.000Z,17.86
2023-04-23T07:58:50.000Z,18.02
2023-04-23T07:59:54.000Z,17.93
2023-04-23T08:00:57.000Z,17.76
2023-04-23T08:02:01.000Z,17.65
2023-04-23T08:03:05.000Z,17.43
2023-04-23T08:04:09.000Z,17.45
2023-04-23T08:05:13.000Z,17.49
2023-04-23T08:06:16.000Z,17.5
2023-04-23T08:07:20.000Z,17.52
2023-04-23T08:08:24.000Z,17.63
2023-04-23T08:09:28.000Z,17.75
2023-04-23T08:10:31.000Z,17.87
2023-04-23T08:11:35.000Z,18.03
2023-04-23T08:12:39.000Z,18.12
2023-04-23T08:13:43.000Z,18.23
2023-04-23T08:14:46.000Z,18.3
2023-04-23T08:15:50.000Z,18.06
2023-04-23T08:16:54.000Z,18.12
2023-04-23T08:17:58.000Z,18.21
2023-04-23T08:19:02.000Z,18.02
2023-04-23T08:20:05.000Z,17.76
2023-04-23T08:21:09.000Z,17.5
2023-04-23T08:22:13.000Z,17.2
2023-04-23T08:23:17.000Z,16.88
2023-04-23T08:24:20.000Z,16.65
2023-04-23T08:25:24.000Z,16.29
2023-04-23T08:26:28.000Z,16.02
2023-04-23T08:27:32.000Z,15.84
2023-04-23T08:28:36.000Z,15.7
2023-04-23T08:29:39.000Z,15.63
2023-04-23T08:30:43.000Z,15.43
2023-04-23T08:31:47.000Z,15.25
2023-04-23T08:32:51.000Z,14.97
2023-04-23T08:33:55.000Z,14.7
2023-04-23T08:34:58.000Z,14.59
2023-04-23T08:36:02.000Z,14.48
2023-04-23T08:37:06.000Z,14.44
2023-04-23T08:38:10.000Z,14.33
2023-04-23T08:39:13.000Z,14.31
2023-04-23T08:40:17.000Z,14.33
2023-04-23T08:41:21.000Z,14.37
2023-04-23T08:42:25.000Z,14.31
2023-04-23T08:43:28.000Z,14.31
2023-04-23T08:44:32.000Z,14.18
2023-04-23T08:45:36.000Z,14.15
2023-04-23T08:46:40.000Z,14.19
2023-04-23T08:47:44.000Z,14.21
2023-04-23T08:48:47.000Z,14.26
2023-04-23T08:49:51.000Z,14.27
2023-04-23T08:50:55.000Z,14.33
2023-04-23T08:51:59.000Z,14.45
2023-04-23T08:53:03.000Z,14.61
2023-04-23T08:54:06.000Z,14.89
2023-04-23T08:55:10.000Z,14.97
2023-04-23T08:56:14.000Z,15.01
2023-04-23T08:57:18.000Z,15.26
2023-04-23T08:58:21.000Z,15.19
2023-04-23T08:59:25.000Z,15.27
2023-04-23T09:00:29.000Z,15.35
2023-04-23T09:01:33.000Z,15.44
2023-04-23T09:02:36.000Z,15.65
2023-04-23T09:03:40.000Z,15.58
2023-04-23T09:04:44.000Z,15.51
2023-04-23T09:05:48.000Z,15.47
2023-04-23T09:06:52.000Z,15.58
2023-04-23T09:07:55.000Z,15.54
2023-04-23T09:08:59.000Z,15.51
2023-04-23T09:10:03.000Z,15.52
2023-04-23T09:11:07.000Z,15.73
2023-04-23T09:12:10.000Z,15.65
2023-04-23T09:13:14.000Z,15.59
2023-04-23T09:14:18.000Z,15.44
2023-04-23T09:15:22.000Z,15.36
2023-04-23T09:16:26.000Z,15.47
2023-04-23T09:17:29.000Z,15.56
2023-04-23T09:18:33.000Z,15.51
2023-04-23T09:19:37.000Z,15.45
2023-04-23T09:20:41.000Z,15.52
2023-04-23T09:21:44.000Z,15.59
2023-04-23T09:22:48.000Z,15.51
2023-04-23T09:23:52.000Z,15.33
2023-04-23T09:24:56.000Z,15.3
2023-04-23T09:26:00.000Z,15.25
2023-04-23T09:27:04.000Z,15.36
2023-04-23T09:28:07.000Z,15.36
2023-04-23T09:29:11.000Z,15.48
2023-04-23T09:30:15.000Z,15.66
2023-04-23T09:31:19.000Z,15.87
2023-04-23T09:32:22.000Z,16.05
2023-04-23T09:33:26.000Z,16.16
2023-04-23T09:34:30.000Z,16.16
2023-04-23T09:35:34.000Z,16.24
2023-04-23T09:36:37.000Z,16.52
2023-04-23T09:37:41.000Z,16.74
2023-04-23T09:38:45.000Z,16.8
2023-04-23T09:39:49.000Z,16.84
2023-04-23T09:40:53.000Z,16.83
2023-04-23T09:41:56.000Z,16.98
2023-04-23T09:43:00.000Z,17.02
2023-04-23T09:44:04.000Z,17.07
2023-04-23T09:45:08.000Z,16.98
2023-04-23T09:46:12.000Z,17.2
2023-04-23T09:47:15.000Z,17.31
2023-04-23T09:48:19.000Z,17.35
2023-04-23T09:49:23.000Z,17.5
2023-04-23T09:50:27.000Z,17.66
2023-04-23T09:51:31.000Z,17.66
2023-04-23T09:52:34.000Z,17.46
2023-04-23T09:53:38.000Z,17.34
2023-04-23T09:54:42.000Z,17.38
2023-04-23T09:55:45.000Z,17.47
2023-04-23T09:56:49.000Z,17.38
2023-04-23T09:57:53.000Z,17.45
2023-04-23T09:58:57.000Z,17.49
2023-04-23T10:00:01.000Z,17.53
2023-04-23T10:01:04.000Z,17.73
2023-04-23T10:02:08.000Z,18.03
2023-04-23T10:03:12.000Z,18.27
2023-04-23T10:04:16.000Z,18.42
2023-04-23T10:05:20.000Z,18.52
2023-04-23T10:06:24.000Z,18.27
2023-04-23T10:07:27.000Z,18.13
2023-04-23T10:08:31.000Z,18.34
2023-04-23T10:09:35.000Z,18.11
2023-04-23T10:10:39.000Z,17.62
2023-04-23T10:11:42.000Z,17.59
2023-04-23T10:12:46.000Z,17.66
2023-04-23T10:13:50.000Z,17.83
2023-04-23T10:14:54.000Z,17.96
2023-04-23T10:15:57.000Z,17.96
2023-04-23T10:17:01.000Z,18.36
2023-04-23T10:18:05.000Z,18.83
2023-04-23T10:19:09.000Z,18.78
2023-04-23T10:20:13.000Z,18.93
2023-04-23T10:21:16.000Z,18.31
2023-04-23T10:22:20.000Z,17.79
2023-04-23T10:23:24.000Z,17.9
2023-04-23T10:24:28.000Z,18.08
2023-04-23T10:25:32.000Z,18.26
2023-04-23T10:26:35.000Z,18.45
2023-04-23T10:27:39.000Z,18.45
2023-04-23T10:28:43.000Z,18.56
2023-04-23T10:29:47.000Z,18.63
2023-04-23T10:30:50.000Z,18.26
2023-04-23T10:31:54.000Z,17.86
2023-04-23T10:32:58.000Z,17.76
2023-04-23T10:34:02.000Z,17.79
2023-04-23T10:35:06.000Z,17.75
2023-04-23T10:36:09.000Z,18.26
2023-04-23T10:37:13.000Z,18.31
2023-04-23T10:38:17.000Z,18.41
2023-04-23T10:39:21.000Z,18.78
2023-04-23T10:40:25.000Z,19.16
2023-04-23T10:41:28.000Z,19.41
2023-04-23T10:42:32.000Z,19.45
2023-04-23T10:43:36.000Z,19.7
2023-04-23T10:44:40.000Z,19.82
2023-04-23T10:45:43.000Z,19.78
2023-04-23T10:46:47.000Z,19.74
2023-04-23T10:47:51.000Z,19.92
2023-04-23T10:48:55.000Z,19.97
2023-04-23T10:49:59.000Z,19.31
2023-04-23T10:51:02.000Z,18.86
2023-04-23T10:52:06.000Z,18.91
2023-04-23T10:53:10.000Z,19.22
2023-04-23T10:54:14.000Z,19.42
2023-04-23T10:55:18.000Z,19.57
2023-04-23T10:56:21.000Z,19.64
2023-04-23T10:57:25.000Z,19.87
2023-04-23T10:58:29.000Z,20.02
2023-04-23T10:59:33.000Z,20.09
2023-04-23T11:00:37.000Z,20.22
2023-04-23T11:01:40.000Z,20.37
2023-04-23T11:02:44.000Z,20.5
2023-04-23T11:03:48.000Z,20.39
2023-04-23T11:04:52.000Z,20.34
2023-04-23T11:05:55.000Z,20.19
2023-04-23T11:06:59.000Z,19.47
2023-04-23T11:08:03.000Z,19.24
2023-04-23T11:09:07.000Z,18.88
2023-04-23T11:10:10.000Z,18.85
2023-04-23T11:11:14.000Z,19.09
2023-04-23T11:12:18.000Z,19.45
2023-04-23T11:13:22.000Z,19.78
2023-04-23T11:14:26.000Z,20.09
2023-04-23T11:15:29.000Z,20.42
2023-04-23T11:16:33.000Z,20.63
2023-04-23T11:17:37.000Z,20.71
2023-04-23T11:18:41.000Z,20.74
2023-04-23T11:19:44.000Z,20.52
2023-04-23T11:20:48.000Z,20.64
2023-04-23T11:21:52.000Z,20.42
2023-04-23T11:22:56.000Z,20.37
2023-04-23T11:23:59.000Z,20.09
2023-04-23T11:25:03.000Z,20.55
2023-04-23T11:26:07.000Z,20.95
2023-04-23T11:27:11.000Z,21.37
2023-04-23T11:28:15.000Z,21.41
2023-04-23T11:29:18.000Z,21.65
2023-04-23T11:30:22.000Z,21.67
2023-04-23T11:31:26.000Z,21.69
2023-04-23T11:32:30.000Z,21.82
2023-04-23T11:33:34.000Z,21.69
2023-04-23T11:34:38.000Z,21.05
2023-04-23T11:35:41.000Z,21.14
2023-04-23T11:36:45.000Z,21.41
2023-04-23T11:37:49.000Z,21.66
2023-04-23T11:38:53.000Z,21.77
2023-04-23T11:39:56.000Z,21.65
2023-04-23T11:41:00.000Z,21.74
2023-04-23T11:42:04.000Z,21.82
2023-04-23T11:43:08.000Z,21.93
2023-04-23T11:44:12.000Z,21.9
2023-04-23T11:45:15.000Z,21.97
2023-04-23T11:46:19.000Z,21.94
2023-04-23T11:47:23.000Z,21.25
2023-04-23T11:48:27.000Z,21.41
2023-04-23T11:49:31.000Z,21.0
2023-04-23T11:50:34.000Z,21.22
2023-04-23T11:51:38.000Z,21.44
2023-04-23T11:52:42.000Z,21.56
2023-04-23T11:53:46.000Z,21.78
2023-04-23T11:54:49.000Z,21.67
2023-04-23T11:55:53.000Z,21.62
2023-04-23T11:56:57.000Z,21.71
2023-04-23T11:58:01.000Z,21.77
2023-04-23T11:59:04.000Z,21.81
2023-04-23T12:00:08.000Z,21.05
2023-04-23T12:01:12.000Z,20.58
2023-04-23T12:02:16.000Z,20.52
2023-04-23T12:03:20.000Z,20.09
2023-04-23T12:04:23.000Z,20.32
2023-04-23T12:05:27.000Z,20.74
2023-04-23T12:06:31.000Z,20.3
2023-04-23T12:07:35.000Z,20.37
2023-04-23T12:08:38.000Z,20.42
2023-04-23T12:09:42.000Z,20.46
2023-04-23T12:10:46.000Z,20.6
2023-04-23T12:11:50.000Z,20.86
2023-04-23T12:12:53.000Z,20.71
2023-04-23T12:13:57.000Z,20.75
2023-04-23T12:15:01.000Z,20.71
2023-04-23T12:16:05.000Z,20.77
2023-04-23T12:17:08.000Z,20.79
2023-04-23T12:18:12.000Z,20.52
2023-04-23T12:19:16.000Z,20.14
2023-04-23T12:20:20.000Z,19.79
2023-04-23T12:21:24.000Z,19.89
2023-04-23T12:22:28.000Z,19.89
2023-04-23T12:23:31.000Z,19.89
2023-04-23T12:24:35.000Z,20.07
2023-04-23T12:25:39.000Z,20.46
2023-04-23T12:26:43.000Z,20.77
2023-04-23T12:27:46.000Z,21.04
2023-04-23T12:28:50.000Z,21.2
2023-04-23T12:29:54.000Z,20.97
2023-04-23T12:30:58.000Z,20.92
2023-04-23T12:32:01.000Z,20.68
2023-04-23T12:33:05.000Z,20.83
2023-04-23T12:34:09.000Z,20.55
2023-04-23T12:35:13.000Z,20.53
2023-04-23T12:36:17.000Z,20.74
2023-04-23T12:37:20.000Z,20.92
2023-04-23T12:38:24.000Z,21.0
2023-04-23T12:39:28.000Z,21.01
2023-04-23T12:40:32.000Z,21.11
2023-04-23T12:41:36.000Z,21.1
2023-04-23T12:42:39.000Z,20.64
2023-04-23T12:43:43.000Z,20.32
2023-04-23T12:44:47.000Z,20.07
2023-04-23T12:45:51.000Z,20.11
2023-04-23T12:46:54.000Z,20.18
2023-04-23T12:47:58.000Z,19.75
2023-04-23T12:49:02.000Z,19.97
2023-04-23T12:50:06.000Z,19.97
2023-04-23T12:51:09.000Z,19.87
2023-04-23T12:52:13.000Z,20.23
2023-04-23T12:53:17.000Z,20.26
2023-04-23T12:54:21.000Z,20.63
2023-04-23T12:55:25.000Z,21.0
2023-04-23T12:56:28.000Z,21.25
2023-04-23T12:57:32.000Z,21.26
2023-04-23T12:58:36.000Z,21.41
2023-04-23T12:59:40.000Z,21.62
2023-04-23T13:00:44.000Z,21.82
2023-04-23T13:01:47.000Z,22.0
2023-04-23T13:02:51.000Z,22.03
2023-04-23T13:03:55.000Z,21.98
2023-04-23T13:04:59.000Z,21.1
2023-04-23T13:06:02.000Z,20.34
2023-04-23T13:07:06.000Z,20.19
2023-04-23T13:08:10.000Z,20.53
2023-04-23T13:09:14.000Z,20.89
2023-04-23T13:10:17.000Z,21.18
2023-04-23T13:11:21.000Z,21.38
2023-04-23T13:12:25.000Z,21.38
2023-04-23T13:13:29.000Z,21.58
2023-04-23T13:14:33.000Z,21.71
2023-04-23T13:15:36.000Z,21.82
2023-04-23T13:16:40.000Z,22.11
2023-04-23T13:17:44.000Z,22.28
2023-04-23T13:18:47.000Z,22.01
2023-04-23T13:19:51.000Z,22.04
2023-04-23T13:20:55.000Z,21.93
2023-04-23T13:21:59.000Z,21.81
2023-04-23T13:23:03.000Z,21.58
2023-04-23T13:24:06.000Z,21.85
2023-04-23T13:25:10.000Z,21.91
2023-04-23T13:26:14.000Z,21.75
2023-04-23T13:27:17.000Z,21.73
2023-04-23T13:28:21.000Z,21.84
2023-04-23T13:29:25.000Z,22.15
2023-04-23T13:30:29.000Z,22.37
2023-04-23T13:31:32.000Z,22.37
2023-04-23T13:32:36.000Z,22.46
2023-04-23T13:33:40.000Z,22.56
2023-04-23T13:34:44.000Z,22.16
2023-04-23T13:35:48.000Z,21.1
2023-04-23T13:36:51.000Z,21.18
2023-04-23T13:37:55.000Z,21.44
2023-04-23T13:38:59.000Z,21.75
2023-04-23T13:40:03.000Z,21.75
2023-04-23T13:41:07.000Z,21.84
2023-04-23T13:42:10.000Z,21.91
2023-04-23T13:43:14.000Z,21.9